sensor_id;sensor_type;location;lat;lon;timestamp;P1;durP1;ratioP1;P2;durP2;ratioP2
8001;SDS011;4046;48.774;8.732;2022-08-21T00:02:00;4.07;;;3.70;;
8001;SDS011;4046;48.774;8.732;2022-08-21T00:04:26;4.13;;;3.73;;
8001;SDS011;4046;48.774;8.732;2022-08-21T00:06:52;4.13;;;3.73;;
8001;SDS011;4046;48.774;8.732;2022-08-21T00:09:18;4.57;;;4.10;;
8001;SDS011;4046;48.774;8.732;2022-08-21T00:11:45;5.73;;;4.07;;
8001;SDS011;4046;48.774;8.732;2022-08-21T00:14:12;3.83;;;3.43;;
8001;SDS011;4046;48.774;8.732;2022-08-21T00:16:42;6.63;;;4.40;;
8001;SDS011;4046;48.774;8.732;2022-08-21T00:19:07;4.43;;;4.03;;
8001;SDS011;4046;48.774;8.732;2022-08-21T00:21:34;4.30;;;3.90;;
8001;SDS011;4046;48.774;8.732;2022-08-21T00:24:00;6.63;;;4.00;;
8001;SDS011;4046;48.774;8.732;2022-08-21T00:26:26;4.60;;;4.10;;
8001;SDS011;4046;48.774;8.732;2022-08-21T00:28:52;4.77;;;4.20;;
8001;SDS011;4046;48.774;8.732;2022-08-21T00:31:18;4.70;;;4.30;;
8001;SDS011;4046;48.774;8.732;2022-08-21T00:33:44;4.70;;;4.20;;
8001;SDS011;4046;48.774;8.732;2022-08-21T00:36:11;4.83;;;3.57;;
8001;SDS011;4046;48.774;8.732;2022-08-21T00:38:38;4.70;;;4.30;;
8001;SDS011;4046;48.774;8.732;2022-08-21T00:41:05;4.10;;;3.70;;
8001;SDS011;4046;48.774;8.732;2022-08-21T00:43:33;4.33;;;3.90;;
8001;SDS011;4046;48.774;8.732;2022-08-21T00:46:01;4.07;;;3.67;;
8001;SDS011;4046;48.774;8.732;2022-08-21T00:48:28;4.20;;;3.90;;
8001;SDS011;4046;48.774;8.732;2022-08-21T00:50:56;4.20;;;3.90;;
8001;SDS011;4046;48.774;8.732;2022-08-21T00:53:34;4.93;;;4.37;;
8001;SDS011;4046;48.774;8.732;2022-08-21T00:56:03;4.37;;;3.73;;
8001;SDS011;4046;48.774;8.732;2022-08-21T00:58:32;4.10;;;3.70;;
8001;SDS011;4046;48.774;8.732;2022-08-21T01:01:01;5.27;;;3.53;;
8001;SDS011;4046;48.774;8.732;2022-08-21T01:03:28;4.43;;;3.77;;
8001;SDS011;4046;48.774;8.732;2022-08-21T01:05:54;4.57;;;4.07;;
8001;SDS011;4046;48.774;8.732;2022-08-21T01:08:21;4.20;;;3.80;;
8001;SDS011;4046;48.774;8.732;2022-08-21T01:10:48;4.10;;;3.70;;
8001;SDS011;4046;48.774;8.732;2022-08-21T01:13:17;4.23;;;3.90;;
8001;SDS011;4046;48.774;8.732;2022-08-21T01:15:48;4.60;;;4.20;;
8001;SDS011;4046;48.774;8.732;2022-08-21T01:18:15;4.87;;;3.63;;
8001;SDS011;4046;48.774;8.732;2022-08-21T01:20:43;4.40;;;4.00;;
8001;SDS011;4046;48.774;8.732;2022-08-21T01:23:16;4.60;;;4.20;;
8001;SDS011;4046;48.774;8.732;2022-08-21T01:25:42;4.40;;;4.00;;
8001;SDS011;4046;48.774;8.732;2022-08-21T01:28:11;4.47;;;4.07;;
8001;SDS011;4046;48.774;8.732;2022-08-21T01:30:39;4.13;;;3.80;;
8001;SDS011;4046;48.774;8.732;2022-08-21T01:33:07;3.83;;;3.53;;
8001;SDS011;4046;48.774;8.732;2022-08-21T01:35:33;6.83;;;4.03;;
8001;SDS011;4046;48.774;8.732;2022-08-21T01:37:59;3.70;;;3.40;;
8001;SDS011;4046;48.774;8.732;2022-08-21T01:40:25;4.47;;;3.60;;
8001;SDS011;4046;48.774;8.732;2022-08-21T01:42:54;4.80;;;4.10;;
8001;SDS011;4046;48.774;8.732;2022-08-21T01:45:19;5.60;;;4.27;;
8001;SDS011;4046;48.774;8.732;2022-08-21T01:47:45;4.00;;;3.70;;
8001;SDS011;4046;48.774;8.732;2022-08-21T01:50:12;5.13;;;4.70;;
8001;SDS011;4046;48.774;8.732;2022-08-21T01:52:41;5.20;;;4.70;;
8001;SDS011;4046;48.774;8.732;2022-08-21T01:55:07;4.27;;;3.87;;
8001;SDS011;4046;48.774;8.732;2022-08-21T01:57:34;4.53;;;3.93;;
8001;SDS011;4046;48.774;8.732;2022-08-21T02:00:00;3.90;;;3.60;;
8001;SDS011;4046;48.774;8.732;2022-08-21T02:02:26;4.00;;;3.70;;
8001;SDS011;4046;48.774;8.732;2022-08-21T02:04:52;7.90;;;5.37;;
8001;SDS011;4046;48.774;8.732;2022-08-21T02:07:17;4.97;;;4.03;;
8001;SDS011;4046;48.774;8.732;2022-08-21T02:09:43;4.30;;;4.00;;
8001;SDS011;4046;48.774;8.732;2022-08-21T02:12:10;4.10;;;3.80;;
8001;SDS011;4046;48.774;8.732;2022-08-21T02:14:38;4.03;;;3.63;;
8001;SDS011;4046;48.774;8.732;2022-08-21T02:17:04;4.37;;;3.97;;
8001;SDS011;4046;48.774;8.732;2022-08-21T02:19:30;4.00;;;3.60;;
8001;SDS011;4046;48.774;8.732;2022-08-21T02:21:56;4.37;;;4.00;;
8001;SDS011;4046;48.774;8.732;2022-08-21T02:24:22;7.73;;;4.27;;
8001;SDS011;4046;48.774;8.732;2022-08-21T02:26:48;4.17;;;3.87;;
8001;SDS011;4046;48.774;8.732;2022-08-21T02:29:13;4.93;;;4.10;;
8001;SDS011;4046;48.774;8.732;2022-08-21T02:31:39;3.97;;;3.67;;
8001;SDS011;4046;48.774;8.732;2022-08-21T02:34:05;4.40;;;3.70;;
8001;SDS011;4046;48.774;8.732;2022-08-21T02:36:31;4.33;;;3.93;;
8001;SDS011;4046;48.774;8.732;2022-08-21T02:38:57;4.07;;;3.77;;
8001;SDS011;4046;48.774;8.732;2022-08-21T02:41:22;4.10;;;3.80;;
8001;SDS011;4046;48.774;8.732;2022-08-21T02:43:48;4.90;;;3.70;;
8001;SDS011;4046;48.774;8.732;2022-08-21T02:46:16;5.50;;;4.10;;
8001;SDS011;4046;48.774;8.732;2022-08-21T02:48:44;7.37;;;5.40;;
8001;SDS011;4046;48.774;8.732;2022-08-21T02:51:11;4.57;;;4.17;;
8001;SDS011;4046;48.774;8.732;2022-08-21T02:53:40;6.20;;;4.30;;
8001;SDS011;4046;48.774;8.732;2022-08-21T02:56:07;4.50;;;4.10;;
8001;SDS011;4046;48.774;8.732;2022-08-21T02:58:37;6.73;;;4.40;;
8001;SDS011;4046;48.774;8.732;2022-08-21T03:01:06;4.97;;;4.57;;
8001;SDS011;4046;48.774;8.732;2022-08-21T03:03:36;4.70;;;3.97;;
8001;SDS011;4046;48.774;8.732;2022-08-21T03:06:06;5.23;;;4.13;;
8001;SDS011;4046;48.774;8.732;2022-08-21T03:08:33;4.67;;;3.70;;
8001;SDS011;4046;48.774;8.732;2022-08-21T03:11:00;4.63;;;4.23;;
8001;SDS011;4046;48.774;8.732;2022-08-21T03:13:26;4.87;;;4.10;;
8001;SDS011;4046;48.774;8.732;2022-08-21T03:15:53;4.90;;;4.40;;
8001;SDS011;4046;48.774;8.732;2022-08-21T03:18:19;7.70;;;4.90;;
8001;SDS011;4046;48.774;8.732;2022-08-21T03:20:45;6.53;;;4.07;;
8001;SDS011;4046;48.774;8.732;2022-08-21T03:23:11;4.43;;;4.03;;
8001;SDS011;4046;48.774;8.732;2022-08-21T03:25:37;4.90;;;4.50;;
8001;SDS011;4046;48.774;8.732;2022-08-21T03:28:04;4.77;;;4.37;;
8001;SDS011;4046;48.774;8.732;2022-08-21T03:30:32;4.77;;;4.47;;
8001;SDS011;4046;48.774;8.732;2022-08-21T03:32:58;5.07;;;4.57;;
8001;SDS011;4046;48.774;8.732;2022-08-21T03:35:25;5.03;;;4.20;;
8001;SDS011;4046;48.774;8.732;2022-08-21T03:37:51;4.80;;;4.40;;
8001;SDS011;4046;48.774;8.732;2022-08-21T03:40:17;5.03;;;4.50;;
8001;SDS011;4046;48.774;8.732;2022-08-21T03:42:45;4.63;;;4.13;;
8001;SDS011;4046;48.774;8.732;2022-08-21T03:45:15;8.23;;;4.30;;
8001;SDS011;4046;48.774;8.732;2022-08-21T03:47:52;5.07;;;4.23;;
8001;SDS011;4046;48.774;8.732;2022-08-21T03:50:24;4.40;;;4.10;;
8001;SDS011;4046;48.774;8.732;2022-08-21T03:52:52;4.20;;;3.90;;
8001;SDS011;4046;48.774;8.732;2022-08-21T03:55:18;5.83;;;4.10;;
8001;SDS011;4046;48.774;8.732;2022-08-21T03:57:43;4.63;;;4.10;;
8001;SDS011;4046;48.774;8.732;2022-08-21T04:00:10;7.07;;;4.03;;
8001;SDS011;4046;48.774;8.732;2022-08-21T04:02:38;4.80;;;4.40;;
8001;SDS011;4046;48.774;8.732;2022-08-21T04:05:05;5.03;;;4.53;;
8001;SDS011;4046;48.774;8.732;2022-08-21T04:07:31;5.60;;;4.87;;
8001;SDS011;4046;48.774;8.732;2022-08-21T04:09:57;5.37;;;4.30;;
8001;SDS011;4046;48.774;8.732;2022-08-21T04:12:22;5.07;;;4.57;;
8001;SDS011;4046;48.774;8.732;2022-08-21T04:14:49;4.80;;;4.40;;
8001;SDS011;4046;48.774;8.732;2022-08-21T04:17:16;5.13;;;4.53;;
8001;SDS011;4046;48.774;8.732;2022-08-21T04:19:42;4.57;;;4.20;;
8001;SDS011;4046;48.774;8.732;2022-08-21T04:22:09;5.03;;;4.63;;
8001;SDS011;4046;48.774;8.732;2022-08-21T04:24:34;5.70;;;4.60;;
8001;SDS011;4046;48.774;8.732;2022-08-21T04:27:00;4.93;;;4.30;;
8001;SDS011;4046;48.774;8.732;2022-08-21T04:29:29;4.43;;;4.03;;
8001;SDS011;4046;48.774;8.732;2022-08-21T04:31:55;4.50;;;4.10;;
8001;SDS011;4046;48.774;8.732;2022-08-21T04:34:21;4.80;;;4.40;;
8001;SDS011;4046;48.774;8.732;2022-08-21T04:36:46;5.07;;;4.57;;
8001;SDS011;4046;48.774;8.732;2022-08-21T04:39:12;5.33;;;4.50;;
8001;SDS011;4046;48.774;8.732;2022-08-21T04:41:38;5.63;;;4.93;;
8001;SDS011;4046;48.774;8.732;2022-08-21T04:44:04;5.00;;;4.50;;
8001;SDS011;4046;48.774;8.732;2022-08-21T04:46:31;5.00;;;4.60;;
8001;SDS011;4046;48.774;8.732;2022-08-21T04:48:57;9.27;;;5.07;;
8001;SDS011;4046;48.774;8.732;2022-08-21T04:51:33;5.30;;;4.80;;
8001;SDS011;4046;48.774;8.732;2022-08-21T04:54:03;4.70;;;4.30;;
8001;SDS011;4046;48.774;8.732;2022-08-21T04:56:39;5.37;;;4.90;;
8001;SDS011;4046;48.774;8.732;2022-08-21T04:59:15;5.23;;;4.77;;
8001;SDS011;4046;48.774;8.732;2022-08-21T05:01:48;5.10;;;4.50;;
8001;SDS011;4046;48.774;8.732;2022-08-21T05:04:18;5.57;;;4.90;;
8001;SDS011;4046;48.774;8.732;2022-08-21T05:06:47;4.77;;;4.37;;
8001;SDS011;4046;48.774;8.732;2022-08-21T05:09:16;6.40;;;4.73;;
8001;SDS011;4046;48.774;8.732;2022-08-21T05:11:43;5.03;;;4.60;;
8001;SDS011;4046;48.774;8.732;2022-08-21T05:14:10;6.67;;;4.80;;
8001;SDS011;4046;48.774;8.732;2022-08-21T05:16:36;5.70;;;5.20;;
8001;SDS011;4046;48.774;8.732;2022-08-21T05:19:03;5.70;;;5.07;;
8001;SDS011;4046;48.774;8.732;2022-08-21T05:21:33;5.33;;;4.90;;
8001;SDS011;4046;48.774;8.732;2022-08-21T05:24:00;5.70;;;5.07;;
8001;SDS011;4046;48.774;8.732;2022-08-21T05:26:25;5.10;;;4.67;;
8001;SDS011;4046;48.774;8.732;2022-08-21T05:28:51;6.00;;;5.40;;
8001;SDS011;4046;48.774;8.732;2022-08-21T05:31:17;5.30;;;4.80;;
8001;SDS011;4046;48.774;8.732;2022-08-21T05:33:43;5.50;;;5.00;;
8001;SDS011;4046;48.774;8.732;2022-08-21T05:36:08;8.70;;;4.97;;
8001;SDS011;4046;48.774;8.732;2022-08-21T05:38:34;5.50;;;5.00;;
8001;SDS011;4046;48.774;8.732;2022-08-21T05:41:00;5.97;;;5.47;;
8001;SDS011;4046;48.774;8.732;2022-08-21T05:43:26;5.53;;;5.00;;
8001;SDS011;4046;48.774;8.732;2022-08-21T05:45:52;6.00;;;5.40;;
8001;SDS011;4046;48.774;8.732;2022-08-21T05:48:19;5.97;;;5.43;;
8001;SDS011;4046;48.774;8.732;2022-08-21T05:50:47;7.40;;;4.87;;
8001;SDS011;4046;48.774;8.732;2022-08-21T05:53:14;6.07;;;4.97;;
8001;SDS011;4046;48.774;8.732;2022-08-21T05:55:42;5.73;;;5.23;;
8001;SDS011;4046;48.774;8.732;2022-08-21T05:58:08;4.90;;;4.50;;
8001;SDS011;4046;48.774;8.732;2022-08-21T06:00:34;5.37;;;4.97;;
8001;SDS011;4046;48.774;8.732;2022-08-21T06:03:00;5.30;;;4.90;;
8001;SDS011;4046;48.774;8.732;2022-08-21T06:05:26;5.30;;;4.63;;
8001;SDS011;4046;48.774;8.732;2022-08-21T06:07:52;6.00;;;5.00;;
8001;SDS011;4046;48.774;8.732;2022-08-21T06:10:18;4.83;;;4.40;;
8001;SDS011;4046;48.774;8.732;2022-08-21T06:12:43;6.03;;;5.50;;
8001;SDS011;4046;48.774;8.732;2022-08-21T06:15:10;5.90;;;5.30;;
8001;SDS011;4046;48.774;8.732;2022-08-21T06:17:35;5.47;;;4.97;;
8001;SDS011;4046;48.774;8.732;2022-08-21T06:20:02;5.43;;;4.90;;
8001;SDS011;4046;48.774;8.732;2022-08-21T06:22:29;5.73;;;4.83;;
8001;SDS011;4046;48.774;8.732;2022-08-21T06:24:55;5.97;;;4.83;;
8001;SDS011;4046;48.774;8.732;2022-08-21T06:27:21;5.30;;;4.77;;
8001;SDS011;4046;48.774;8.732;2022-08-21T06:29:46;6.80;;;4.93;;
8001;SDS011;4046;48.774;8.732;2022-08-21T06:32:12;5.70;;;5.20;;
8001;SDS011;4046;48.774;8.732;2022-08-21T06:34:39;6.20;;;4.87;;
8001;SDS011;4046;48.774;8.732;2022-08-21T06:37:06;5.90;;;5.40;;
8001;SDS011;4046;48.774;8.732;2022-08-21T06:39:32;4.53;;;4.10;;
8001;SDS011;4046;48.774;8.732;2022-08-21T06:41:58;4.90;;;4.43;;
8001;SDS011;4046;48.774;8.732;2022-08-21T06:44:24;5.80;;;5.20;;
8001;SDS011;4046;48.774;8.732;2022-08-21T06:46:50;5.80;;;4.70;;
8001;SDS011;4046;48.774;8.732;2022-08-21T06:49:16;5.17;;;4.77;;
8001;SDS011;4046;48.774;8.732;2022-08-21T06:51:42;5.10;;;4.60;;
8001;SDS011;4046;48.774;8.732;2022-08-21T06:54:08;5.80;;;5.27;;
8001;SDS011;4046;48.774;8.732;2022-08-21T06:56:34;8.00;;;4.73;;
8001;SDS011;4046;48.774;8.732;2022-08-21T06:59:02;5.33;;;4.87;;
8001;SDS011;4046;48.774;8.732;2022-08-21T07:01:28;8.90;;;5.00;;
8001;SDS011;4046;48.774;8.732;2022-08-21T07:03:54;5.57;;;5.07;;
8001;SDS011;4046;48.774;8.732;2022-08-21T07:06:20;6.67;;;4.63;;
8001;SDS011;4046;48.774;8.732;2022-08-21T07:08:45;4.80;;;4.00;;
8001;SDS011;4046;48.774;8.732;2022-08-21T07:11:17;5.37;;;4.67;;
8001;SDS011;4046;48.774;8.732;2022-08-21T07:13:45;5.60;;;4.80;;
8001;SDS011;4046;48.774;8.732;2022-08-21T07:16:11;5.20;;;4.70;;
8001;SDS011;4046;48.774;8.732;2022-08-21T07:18:37;4.60;;;4.30;;
8001;SDS011;4046;48.774;8.732;2022-08-21T07:21:03;6.30;;;4.90;;
8001;SDS011;4046;48.774;8.732;2022-08-21T07:23:31;4.47;;;4.00;;
8001;SDS011;4046;48.774;8.732;2022-08-21T07:26:00;5.23;;;4.73;;
8001;SDS011;4046;48.774;8.732;2022-08-21T07:28:26;5.90;;;4.93;;
8001;SDS011;4046;48.774;8.732;2022-08-21T07:30:54;5.00;;;4.50;;
8001;SDS011;4046;48.774;8.732;2022-08-21T07:33:22;4.93;;;4.53;;
8001;SDS011;4046;48.774;8.732;2022-08-21T07:35:49;6.93;;;4.40;;
8001;SDS011;4046;48.774;8.732;2022-08-21T07:38:15;5.00;;;4.50;;
8001;SDS011;4046;48.774;8.732;2022-08-21T07:40:41;4.77;;;4.37;;
8001;SDS011;4046;48.774;8.732;2022-08-21T07:43:07;4.63;;;4.23;;
8001;SDS011;4046;48.774;8.732;2022-08-21T07:45:33;4.13;;;3.83;;
8001;SDS011;4046;48.774;8.732;2022-08-21T07:47:59;5.17;;;4.33;;
8001;SDS011;4046;48.774;8.732;2022-08-21T07:50:25;4.90;;;4.50;;
8001;SDS011;4046;48.774;8.732;2022-08-21T07:52:51;5.17;;;3.90;;
8001;SDS011;4046;48.774;8.732;2022-08-21T07:55:18;5.40;;;4.40;;
8001;SDS011;4046;48.774;8.732;2022-08-21T07:57:44;4.90;;;4.50;;
8001;SDS011;4046;48.774;8.732;2022-08-21T08:00:12;4.50;;;4.10;;
8001;SDS011;4046;48.774;8.732;2022-08-21T08:02:40;5.30;;;4.57;;
8001;SDS011;4046;48.774;8.732;2022-08-21T08:05:10;5.87;;;4.00;;
8001;SDS011;4046;48.774;8.732;2022-08-21T08:07:36;5.23;;;4.80;;
8001;SDS011;4046;48.774;8.732;2022-08-21T08:10:03;8.33;;;4.70;;
8001;SDS011;4046;48.774;8.732;2022-08-21T08:12:32;5.10;;;3.80;;
8001;SDS011;4046;48.774;8.732;2022-08-21T08:15:03;5.47;;;4.97;;
8001;SDS011;4046;48.774;8.732;2022-08-21T08:17:30;5.90;;;5.00;;
8001;SDS011;4046;48.774;8.732;2022-08-21T08:19:57;5.50;;;5.10;;
8001;SDS011;4046;48.774;8.732;2022-08-21T08:22:26;5.27;;;4.77;;
8001;SDS011;4046;48.774;8.732;2022-08-21T08:24:52;4.43;;;4.13;;
8001;SDS011;4046;48.774;8.732;2022-08-21T08:27:19;4.90;;;4.50;;
8001;SDS011;4046;48.774;8.732;2022-08-21T08:29:46;7.37;;;5.10;;
8001;SDS011;4046;48.774;8.732;2022-08-21T08:32:13;4.90;;;4.47;;
8001;SDS011;4046;48.774;8.732;2022-08-21T08:34:39;7.00;;;4.60;;
8001;SDS011;4046;48.774;8.732;2022-08-21T08:37:05;4.37;;;3.97;;
8001;SDS011;4046;48.774;8.732;2022-08-21T08:39:33;4.93;;;3.97;;
8001;SDS011;4046;48.774;8.732;2022-08-21T08:42:09;3.97;;;3.67;;
8001;SDS011;4046;48.774;8.732;2022-08-21T08:44:40;5.50;;;3.90;;
8001;SDS011;4046;48.774;8.732;2022-08-21T08:47:08;5.53;;;4.03;;
8001;SDS011;4046;48.774;8.732;2022-08-21T08:49:47;4.67;;;3.57;;
8001;SDS011;4046;48.774;8.732;2022-08-21T08:52:40;4.60;;;4.20;;
8001;SDS011;4046;48.774;8.732;2022-08-21T08:55:14;4.63;;;3.93;;
8001;SDS011;4046;48.774;8.732;2022-08-21T08:57:45;4.83;;;4.37;;
8001;SDS011;4046;48.774;8.732;2022-08-21T09:00:14;5.40;;;4.03;;
8001;SDS011;4046;48.774;8.732;2022-08-21T09:02:43;4.60;;;4.20;;
8001;SDS011;4046;48.774;8.732;2022-08-21T09:05:15;6.40;;;4.40;;
8001;SDS011;4046;48.774;8.732;2022-08-21T09:10:38;5.73;;;5.13;;
8001;SDS011;4046;48.774;8.732;2022-08-21T09:16:24;4.70;;;4.30;;
8001;SDS011;4046;48.774;8.732;2022-08-21T09:19:27;4.40;;;4.00;;
8001;SDS011;4046;48.774;8.732;2022-08-21T09:24:59;7.80;;;4.07;;
8001;SDS011;4046;48.774;8.732;2022-08-21T09:27:26;3.63;;;3.33;;
8001;SDS011;4046;48.774;8.732;2022-08-21T09:29:52;4.20;;;3.90;;
8001;SDS011;4046;48.774;8.732;2022-08-21T09:32:23;3.53;;;3.23;;
8001;SDS011;4046;48.774;8.732;2022-08-21T09:34:58;3.80;;;3.00;;
8001;SDS011;4046;48.774;8.732;2022-08-21T09:37:35;4.73;;;3.47;;
8001;SDS011;4046;48.774;8.732;2022-08-21T09:45:32;3.70;;;3.23;;
8001;SDS011;4046;48.774;8.732;2022-08-21T09:48:17;4.90;;;3.10;;
8001;SDS011;4046;48.774;8.732;2022-08-21T09:50:45;4.20;;;3.33;;
8001;SDS011;4046;48.774;8.732;2022-08-21T09:53:28;3.80;;;3.50;;
8001;SDS011;4046;48.774;8.732;2022-08-21T09:56:03;5.87;;;3.40;;
8001;SDS011;4046;48.774;8.732;2022-08-21T09:58:59;4.17;;;3.30;;
8001;SDS011;4046;48.774;8.732;2022-08-21T10:01:25;5.63;;;3.30;;
8001;SDS011;4046;48.774;8.732;2022-08-21T10:04:04;3.37;;;3.07;;
8001;SDS011;4046;48.774;8.732;2022-08-21T10:06:32;2.97;;;2.50;;
8001;SDS011;4046;48.774;8.732;2022-08-21T10:09:18;3.23;;;2.93;;
8001;SDS011;4046;48.774;8.732;2022-08-21T10:11:54;3.50;;;3.20;;
8001;SDS011;4046;48.774;8.732;2022-08-21T10:14:52;3.93;;;3.10;;
8001;SDS011;4046;48.774;8.732;2022-08-21T10:17:45;4.13;;;3.10;;
8001;SDS011;4046;48.774;8.732;2022-08-21T10:31:21;4.27;;;3.40;;
8001;SDS011;4046;48.774;8.732;2022-08-21T10:34:15;4.43;;;3.47;;
8001;SDS011;4046;48.774;8.732;2022-08-21T10:39:36;3.90;;;3.33;;
8001;SDS011;4046;48.774;8.732;2022-08-21T10:42:25;3.53;;;3.07;;
8001;SDS011;4046;48.774;8.732;2022-08-21T10:47:37;8.63;;;3.40;;
8001;SDS011;4046;48.774;8.732;2022-08-21T10:55:59;4.00;;;3.60;;
8001;SDS011;4046;48.774;8.732;2022-08-21T10:58:31;4.50;;;3.47;;
8001;SDS011;4046;48.774;8.732;2022-08-21T11:01:22;3.63;;;3.33;;
8001;SDS011;4046;48.774;8.732;2022-08-21T11:04:02;4.20;;;2.90;;
8001;SDS011;4046;48.774;8.732;2022-08-21T11:06:37;3.83;;;3.03;;
8001;SDS011;4046;48.774;8.732;2022-08-21T11:09:14;3.97;;;3.17;;
8001;SDS011;4046;48.774;8.732;2022-08-21T11:11:46;4.20;;;3.50;;
8001;SDS011;4046;48.774;8.732;2022-08-21T11:14:20;3.60;;;3.30;;
8001;SDS011;4046;48.774;8.732;2022-08-21T11:16:53;4.33;;;3.10;;
8001;SDS011;4046;48.774;8.732;2022-08-21T11:19:33;3.97;;;3.30;;
8001;SDS011;4046;48.774;8.732;2022-08-21T11:22:28;3.23;;;2.93;;
8001;SDS011;4046;48.774;8.732;2022-08-21T11:25:07;3.50;;;2.90;;
8001;SDS011;4046;48.774;8.732;2022-08-21T11:27:52;3.63;;;3.30;;
8001;SDS011;4046;48.774;8.732;2022-08-21T11:30:24;3.93;;;3.50;;
8001;SDS011;4046;48.774;8.732;2022-08-21T11:33:09;3.30;;;3.00;;
8001;SDS011;4046;48.774;8.732;2022-08-21T11:35:52;3.37;;;3.07;;
8001;SDS011;4046;48.774;8.732;2022-08-21T11:38:42;3.30;;;3.00;;
8001;SDS011;4046;48.774;8.732;2022-08-21T11:44:29;3.63;;;3.30;;
8001;SDS011;4046;48.774;8.732;2022-08-21T11:50:15;4.20;;;3.00;;
8001;SDS011;4046;48.774;8.732;2022-08-21T11:52:44;5.50;;;3.33;;
8001;SDS011;4046;48.774;8.732;2022-08-21T11:55:18;3.20;;;3.00;;
8001;SDS011;4046;48.774;8.732;2022-08-21T11:57:51;4.43;;;3.20;;
8001;SDS011;4046;48.774;8.732;2022-08-21T12:00:33;4.60;;;3.30;;
8001;SDS011;4046;48.774;8.732;2022-08-21T12:06:08;4.70;;;3.07;;
8001;SDS011;4046;48.774;8.732;2022-08-21T12:08:37;3.80;;;3.10;;
8001;SDS011;4046;48.774;8.732;2022-08-21T12:13:57;3.30;;;3.00;;
8001;SDS011;4046;48.774;8.732;2022-08-21T12:16:31;5.37;;;3.30;;
8001;SDS011;4046;48.774;8.732;2022-08-21T12:19:07;3.10;;;2.90;;
8001;SDS011;4046;48.774;8.732;2022-08-21T12:21:58;3.30;;;3.00;;
8001;SDS011;4046;48.774;8.732;2022-08-21T12:24:32;3.60;;;3.30;;
8001;SDS011;4046;48.774;8.732;2022-08-21T12:29:47;4.20;;;2.97;;
8001;SDS011;4046;48.774;8.732;2022-08-21T12:34:42;3.77;;;3.13;;
8001;SDS011;4046;48.774;8.732;2022-08-21T12:37:15;7.03;;;3.37;;
8001;SDS011;4046;48.774;8.732;2022-08-21T12:39:50;6.03;;;4.23;;
8001;SDS011;4046;48.774;8.732;2022-08-21T12:42:33;3.87;;;3.47;;
8001;SDS011;4046;48.774;8.732;2022-08-21T12:47:59;4.83;;;3.30;;
8001;SDS011;4046;48.774;8.732;2022-08-21T12:50:32;3.70;;;3.40;;
8001;SDS011;4046;48.774;8.732;2022-08-21T12:55:50;3.50;;;3.20;;
8001;SDS011;4046;48.774;8.732;2022-08-21T12:58:16;5.60;;;3.40;;
8001;SDS011;4046;48.774;8.732;2022-08-21T13:00:57;6.13;;;3.97;;
8001;SDS011;4046;48.774;8.732;2022-08-21T13:03:29;3.47;;;3.17;;
8001;SDS011;4046;48.774;8.732;2022-08-21T13:05:57;3.30;;;3.10;;
8001;SDS011;4046;48.774;8.732;2022-08-21T13:08:24;3.67;;;3.30;;
8001;SDS011;4046;48.774;8.732;2022-08-21T13:10:59;4.27;;;3.43;;
8001;SDS011;4046;48.774;8.732;2022-08-21T13:13:28;3.90;;;3.20;;
8001;SDS011;4046;48.774;8.732;2022-08-21T13:15:58;3.40;;;3.10;;
8001;SDS011;4046;48.774;8.732;2022-08-21T13:18:29;4.00;;;3.60;;
8001;SDS011;4046;48.774;8.732;2022-08-21T13:21:30;3.93;;;3.50;;
8001;SDS011;4046;48.774;8.732;2022-08-21T13:23:52;3.60;;;3.40;;
8001;SDS011;4046;48.774;8.732;2022-08-21T13:26:21;4.00;;;3.60;;
8001;SDS011;4046;48.774;8.732;2022-08-21T13:28:47;3.77;;;3.30;;
8001;SDS011;4046;48.774;8.732;2022-08-21T13:31:28;4.07;;;3.57;;
8001;SDS011;4046;48.774;8.732;2022-08-21T13:33:56;4.80;;;3.10;;
8001;SDS011;4046;48.774;8.732;2022-08-21T13:36:26;3.47;;;3.27;;
8001;SDS011;4046;48.774;8.732;2022-08-21T13:38:56;3.20;;;2.90;;
8001;SDS011;4046;48.774;8.732;2022-08-21T13:41:28;4.07;;;3.27;;
8001;SDS011;4046;48.774;8.732;2022-08-21T13:44:13;5.00;;;3.10;;
8001;SDS011;4046;48.774;8.732;2022-08-21T13:46:44;6.33;;;3.23;;
8001;SDS011;4046;48.774;8.732;2022-08-21T13:49:13;3.90;;;3.37;;
8001;SDS011;4046;48.774;8.732;2022-08-21T13:51:42;3.13;;;2.83;;
8001;SDS011;4046;48.774;8.732;2022-08-21T13:56:48;3.37;;;3.07;;
8001;SDS011;4046;48.774;8.732;2022-08-21T13:59:31;3.60;;;3.30;;
8001;SDS011;4046;48.774;8.732;2022-08-21T14:02:00;3.40;;;3.10;;
8001;SDS011;4046;48.774;8.732;2022-08-21T14:04:39;3.20;;;3.00;;
8001;SDS011;4046;48.774;8.732;2022-08-21T14:07:36;3.33;;;3.00;;
8001;SDS011;4046;48.774;8.732;2022-08-21T14:10:06;7.20;;;3.87;;
8001;SDS011;4046;48.774;8.732;2022-08-21T14:12:46;3.53;;;3.23;;
8001;SDS011;4046;48.774;8.732;2022-08-21T14:15:16;4.03;;;3.67;;
8001;SDS011;4046;48.774;8.732;2022-08-21T14:17:44;4.40;;;3.23;;
8001;SDS011;4046;48.774;8.732;2022-08-21T14:20:12;3.70;;;3.30;;
8001;SDS011;4046;48.774;8.732;2022-08-21T14:22:55;4.90;;;3.40;;
8001;SDS011;4046;48.774;8.732;2022-08-21T14:27:51;3.80;;;3.40;;
8001;SDS011;4046;48.774;8.732;2022-08-21T14:30:39;3.63;;;3.30;;
8001;SDS011;4046;48.774;8.732;2022-08-21T14:33:10;4.40;;;3.40;;
8001;SDS011;4046;48.774;8.732;2022-08-21T14:35:37;3.83;;;3.40;;
8001;SDS011;4046;48.774;8.732;2022-08-21T14:38:17;5.23;;;3.40;;
8001;SDS011;4046;48.774;8.732;2022-08-21T14:40:47;3.40;;;3.10;;
8001;SDS011;4046;48.774;8.732;2022-08-21T14:43:14;3.67;;;3.30;;
8001;SDS011;4046;48.774;8.732;2022-08-21T14:45:40;5.30;;;4.00;;
8001;SDS011;4046;48.774;8.732;2022-08-21T14:48:08;5.90;;;3.40;;
8001;SDS011;4046;48.774;8.732;2022-08-21T14:50:35;4.20;;;3.90;;
8001;SDS011;4046;48.774;8.732;2022-08-21T14:53:01;3.97;;;3.57;;
8001;SDS011;4046;48.774;8.732;2022-08-21T14:55:29;4.50;;;3.40;;
8001;SDS011;4046;48.774;8.732;2022-08-21T14:58:16;5.97;;;4.53;;
8001;SDS011;4046;48.774;8.732;2022-08-21T15:00:42;3.50;;;3.13;;
8001;SDS011;4046;48.774;8.732;2022-08-21T15:03:07;3.37;;;3.07;;
8001;SDS011;4046;48.774;8.732;2022-08-21T15:05:34;4.50;;;3.10;;
8001;SDS011;4046;48.774;8.732;2022-08-21T15:08:00;3.70;;;3.20;;
8001;SDS011;4046;48.774;8.732;2022-08-21T15:10:26;4.43;;;3.67;;
8001;SDS011;4046;48.774;8.732;2022-08-21T15:12:52;4.30;;;3.33;;
8001;SDS011;4046;48.774;8.732;2022-08-21T15:15:19;3.50;;;3.20;;
8001;SDS011;4046;48.774;8.732;2022-08-21T15:17:45;4.07;;;3.57;;
8001;SDS011;4046;48.774;8.732;2022-08-21T15:20:11;3.77;;;3.40;;
8001;SDS011;4046;48.774;8.732;2022-08-21T15:22:37;3.80;;;3.50;;
8001;SDS011;4046;48.774;8.732;2022-08-21T15:25:03;5.63;;;3.23;;
8001;SDS011;4046;48.774;8.732;2022-08-21T15:27:29;4.00;;;3.30;;
8001;SDS011;4046;48.774;8.732;2022-08-21T15:29:55;3.83;;;3.20;;
8001;SDS011;4046;48.774;8.732;2022-08-21T15:32:23;4.63;;;3.53;;
8001;SDS011;4046;48.774;8.732;2022-08-21T15:34:51;3.20;;;2.90;;
8001;SDS011;4046;48.774;8.732;2022-08-21T15:37:18;3.80;;;3.50;;
8001;SDS011;4046;48.774;8.732;2022-08-21T15:39:45;4.20;;;3.80;;
8001;SDS011;4046;48.774;8.732;2022-08-21T15:42:12;3.30;;;3.10;;
8001;SDS011;4046;48.774;8.732;2022-08-21T15:44:41;3.57;;;3.27;;
8001;SDS011;4046;48.774;8.732;2022-08-21T15:47:12;3.60;;;3.13;;
8001;SDS011;4046;48.774;8.732;2022-08-21T15:49:42;4.00;;;3.60;;
8001;SDS011;4046;48.774;8.732;2022-08-21T15:52:13;3.20;;;2.80;;
8001;SDS011;4046;48.774;8.732;2022-08-21T15:54:40;3.57;;;3.27;;
8001;SDS011;4046;48.774;8.732;2022-08-21T15:57:09;3.30;;;3.10;;
8001;SDS011;4046;48.774;8.732;2022-08-21T15:59:40;4.83;;;3.50;;
8001;SDS011;4046;48.774;8.732;2022-08-21T16:02:15;3.60;;;2.90;;
8001;SDS011;4046;48.774;8.732;2022-08-21T16:04:46;3.97;;;3.43;;
8001;SDS011;4046;48.774;8.732;2022-08-21T16:07:12;3.30;;;3.10;;
8001;SDS011;4046;48.774;8.732;2022-08-21T16:09:38;4.37;;;3.10;;
8001;SDS011;4046;48.774;8.732;2022-08-21T16:12:05;4.17;;;3.83;;
8001;SDS011;4046;48.774;8.732;2022-08-21T16:14:31;4.03;;;3.50;;
8001;SDS011;4046;48.774;8.732;2022-08-21T16:16:59;3.80;;;3.40;;
8001;SDS011;4046;48.774;8.732;2022-08-21T16:19:26;3.10;;;2.80;;
8001;SDS011;4046;48.774;8.732;2022-08-21T16:21:54;3.47;;;3.17;;
8001;SDS011;4046;48.774;8.732;2022-08-21T16:24:20;4.63;;;3.30;;
8001;SDS011;4046;48.774;8.732;2022-08-21T16:26:47;3.33;;;3.00;;
8001;SDS011;4046;48.774;8.732;2022-08-21T16:29:14;3.90;;;3.60;;
8001;SDS011;4046;48.774;8.732;2022-08-21T16:31:40;3.40;;;3.10;;
8001;SDS011;4046;48.774;8.732;2022-08-21T16:34:06;3.80;;;3.13;;
8001;SDS011;4046;48.774;8.732;2022-08-21T16:36:35;3.93;;;3.53;;